Terminal Aerodrome Forecast
Issued by NWS St Louis, MO

Home | Current Version | Previous Version | Text Only | Print | Product List | Glossary On
Versions: 1 2 3 4 5 6 7 8 9 10 11 12 13 14 15 16 17 18 19 20 21 22 23 24 25 26 27 28
000
FTUS43 KLSX 150310 AAB
TAFSTL
TAF AMD
KSTL 150310Z 1503/1606 18012KT P6SM OVC040
     FM150800 21011KT 1 1/2SM -SN OVC015
     FM151400 30016G24KT P6SM OVC025
     FM152100 30016G24KT P6SM BKN035=

USA.gov is the U.S. government's official web portal to all federal, state and local government web resources and services.